Latest Weather Observations for Karijini North

IDW60801

Issued at 11:34 pm WST Friday 28 February 2020 (issued every 10 minutes, with the page automatically refreshed every 10 minutes)

About weather observations | Map of weather stations | Latest weather observations for WA | Other Formats
Station Details ID: 005098 Name: KARIJINI NORTH Lat: -22.30 Lon: 118.45 Height: 474.0 m
Data from the previous 72 hours. | See also: Recent months at Karijini North
Date/Time
WST
Temp
°C
App
Temp
°C
Dew
Point
°C
Rel
Hum
%
Delta-T
°C
Wind Press
QNH
hPa
Press
MSL
hPa
Rain since
9am
mm
Dir  Spd
km/h
Gust
km/h
Spd
kts
Gust
kts
28/11:30pm 32.6 35.4 18.0 41 9.6 CALM 0 6 0 3 1008.6 1004.5 0.0
28/11:00pm 32.4 34.4 17.8 41 9.6 SW 4 7 2 4 1008.5 1004.4 0.0
28/10:30pm 32.9 32.9 17.1 39 10.2 NW 13 17 7 9 1008.4 1004.3 0.0
28/10:00pm 34.2 33.6 15.6 32 11.9 SW 13 17 7 9 1008.1 1004.0 0.0
28/09:30pm 35.4 34.1 15.7 31 12.6 SSE 17 24 9 13 1008.0 1003.9 0.0
28/09:00pm 34.5 32.9 15.9 33 11.9 E 19 24 10 13 1008.4 1004.3 0.0
28/08:30pm 34.9 34.7 15.7 31 12.3 S 11 17 6 9 1007.8 1003.7 0.0
28/08:00pm 34.1 34.9 17.3 36 11.0 S 9 9 5 5 1007.5 1003.4 0.0
28/07:30pm 34.6 36.0 17.8 37 11.1 S 7 9 4 5 1007.3 1003.1 0.0
28/07:00pm 35.8 38.4 17.5 34 12.1 CALM 0 0 0 0 1006.9 1002.8 0.0
28/06:30pm 37.2 37.7 15.6 27 13.9 NNE 7 9 4 5 1006.8 1002.7 0.0
28/06:00pm 37.8 37.6 15.6 27 14.3 NNE 11 15 6 8 1006.5 1002.4 0.0
28/05:30pm 38.3 37.4 14.8 25 15.0 NNE 13 17 7 9 1006.2 1002.1 0.0
28/05:00pm 38.6 38.3 14.4 24 15.4 NE 9 15 5 8 1005.9 1001.8 0.0
28/04:30pm 38.4 37.1 13.6 23 15.6 ENE 13 20 7 11 1006.1 1002.0 0.0
28/04:00pm 37.9 35.5 13.8 23 15.2 ENE 19 28 10 15 1006.2 1002.1 0.0
28/03:32pm 37.5 34.1 15.9 28 14.0 ENE 28 48 15 26 1006.4 1002.3 0.0
28/03:30pm 37.8 35.1 15.6 27 14.3 NE 24 44 13 24 1006.5 1002.4 0.0
28/03:00pm 39.1 37.0 14.8 23 15.6 NNE 19 26 10 14 1006.3 1002.2 0.0
28/02:30pm 40.5 38.8 14.6 21 16.6 NNE 17 28 9 15 1006.6 1002.5 0.0
28/02:00pm 39.9 37.4 13.4 21 16.7 NE 19 35 10 19 1006.9 1002.8 0.0
28/01:30pm 40.4 37.8 13.1 20 17.2 NNE 19 32 10 17 1007.3 1003.1 0.0
28/01:00pm 38.9 36.4 14.0 23 15.8 NNE 20 33 11 18 1007.8 1003.7 0.0
28/12:30pm 39.8 37.8 15.4 23 15.8 NNE 20 30 11 16 1008.1 1004.0 0.0
28/12:00pm 39.8 37.6 14.8 23 16.1 ENE 20 39 11 21 1008.6 1004.5 0.0
28/11:30am 39.6 37.0 13.9 22 16.3 NNE 20 33 11 18 1008.8 1004.7 0.0
28/11:00am 38.6 38.8 16.8 27 14.3 NE 11 24 6 13 1008.9 1004.8 0.0
28/10:30am 38.2 38.7 16.5 28 14.2 ESE 9 17 5 9 1009.1 1005.0 0.0
28/10:00am 37.5 38.4 17.5 30 13.2 ENE 9 15 5 8 1009.3 1005.2 0.0
28/09:30am 36.3 38.4 19.3 37 11.5 E 7 13 4 7 1009.7 1005.6 0.0
28/09:00am 35.1 36.3 18.2 36 11.2 S 9 13 5 7 1009.7 1005.6 0.0
28/08:30am 33.6 36.0 19.7 44 9.4 S 6 13 3 7 1009.7 1005.6 0.0
28/08:00am 31.1 34.3 22.4 60 6.0 ENE 9 11 5 6 1009.8 1005.7 0.0
28/07:30am 29.9 34.8 22.3 63 5.2 CALM 0 0 0 0 1009.8 1005.7 0.0
28/07:00am 29.1 32.8 22.6 68 4.5 ENE 7 11 4 6 1009.8 1005.7 0.0
28/06:30am 27.2 30.1 22.4 75 3.3 ENE 11 17 6 9 1009.8 1005.7 0.0
28/06:00am 27.1 30.0 21.8 73 3.6 W 9 11 5 6 1009.1 1005.0 0.0
28/05:30am 26.8 30.0 22.4 77 3.0 WNW 9 13 5 7 1009.0 1004.9 0.0
28/05:00am 27.7 31.8 22.2 72 3.8 SSE 4 7 2 4 1009.2 1005.1 0.0
28/04:30am 27.4 30.3 22.4 74 3.4 WSW 11 17 6 9 1009.1 1005.0 0.0
28/04:00am 27.7 31.8 22.2 72 3.8 NE 4 9 2 5 1009.8 1005.7 0.0
28/03:30am 28.1 30.7 21.9 69 4.2 NNE 11 15 6 8 1010.0 1005.9 0.0
28/03:00am 28.3 31.4 22.1 69 4.3 ENE 9 13 5 7 1010.2 1006.1 0.0
28/02:30am 28.4 29.6 22.2 69 4.3 E 19 28 10 15 1010.3 1006.2 0.0
28/02:00am 28.3 31.9 22.3 70 4.1 NE 7 9 4 5 1008.9 1004.8 0.0
28/01:30am 29.2 32.3 22.2 66 4.8 NNW 9 15 5 8 1009.0 1004.9 0.0
28/01:00am 29.4 33.3 21.9 64 5.1 WNW 4 9 2 5 1009.0 1004.9 0.0
28/12:30am 30.0 32.7 22.2 63 5.4 WNW 11 17 6 9 1009.0 1004.9 0.0
28/12:00am 30.3 32.5 21.9 60 5.8 NW 13 17 7 9 1009.0 1004.9 0.0
 
Date/Time
WST
Temp
°C
App
Temp
°C
Dew
Point
°C
Rel
Hum
%
Delta-T
°C
Wind Press
QNH
hPa
Press
MSL
hPa
Rain since
9am
mm
Dir  Spd
km/h
Gust
km/h
Spd
kts
Gust
kts
27/11:30pm 30.1 32.0 19.8 54 6.9 WNW 9 11 5 6 1009.1 1005.0 0.0
27/11:00pm 30.2 31.9 18.6 49 7.6 WSW 7 11 4 6 1009.2 1005.1 0.0
27/10:30pm 31.4 34.4 18.4 46 8.5 CALM 0 0 0 0 1009.1 1005.0 0.0
27/10:00pm 32.1 34.1 17.9 42 9.3 NW 4 9 2 5 1009.0 1004.9 0.0
27/09:30pm 33.3 32.9 16.2 36 11.0 WNW 13 20 7 11 1009.0 1004.9 0.0
27/09:00pm 33.8 33.8 15.3 33 11.8 WNW 9 11 5 6 1008.9 1004.8 0.0
27/08:30pm 33.8 33.6 14.8 32 12.0 W 9 11 5 6 1008.6 1004.5 0.0
27/08:00pm 33.8 33.8 14.3 31 12.2 WSW 7 9 4 5 1008.5 1004.4 0.0
27/07:30pm 34.6 34.3 13.4 28 13.1 SW 7 9 4 5 1008.2 1004.1 0.0
27/07:00pm 34.8 36.5 15.2 31 12.5 CALM 0 0 0 0 1008.1 1004.0 0.0
27/06:30pm 36.8 36.2 13.5 24 14.6 N 9 13 5 7 1008.0 1003.9 0.0
27/06:00pm 38.4 36.8 12.9 22 15.9 N 13 17 7 9 1007.7 1003.6 0.0
27/05:30pm 38.7 36.3 12.5 21 16.2 NNE 17 24 9 13 1007.4 1003.2 0.0
27/05:00pm 39.5 36.4 11.6 19 17.2 N 19 32 10 17 1007.2 1003.0 0.0
27/04:30pm 39.9 36.9 11.9 19 17.3 NNE 19 30 10 16 1007.2 1003.0 0.0
27/04:00pm 40.1 38.3 12.1 19 17.4 NE 13 20 7 11 1007.2 1003.0 0.0
27/03:30pm 39.7 36.4 10.9 18 17.5 NE 19 28 10 15 1007.2 1003.0 0.0
27/03:00pm 40.8 37.8 11.8 18 18.0 NNE 19 26 10 14 1007.3 1003.1 0.0
27/02:30pm 40.7 37.2 10.9 17 18.2 NE 20 37 11 20 1007.6 1003.5 0.0
27/02:00pm 39.8 37.0 12.6 20 17.0 NE 19 32 10 17 1007.7 1003.6 0.0
27/01:30pm 39.6 37.8 13.2 21 16.6 NE 15 26 8 14 1007.9 1003.8 0.0
27/01:00pm 40.0 38.6 13.5 21 16.8 NE 13 22 7 12 1008.4 1004.3 0.0
27/12:30pm 39.2 37.0 12.1 20 16.7 E 15 26 8 14 1008.8 1004.7 0.0
27/12:00pm 38.8 36.1 11.8 20 16.6 E 17 24 9 13 1009.2 1005.1 0.0
27/11:30am 38.2 36.4 13.4 23 15.5 E 15 24 8 13 1009.6 1005.5 0.0
27/11:00am 38.3 36.4 14.2 24 15.3 E 17 28 9 15 1009.7 1005.6 0.0
27/10:30am 37.6 35.7 14.2 25 14.8 ENE 17 26 9 14 1009.9 1005.8 0.0
27/10:00am 36.3 36.4 15.4 28 13.4 E 9 15 5 8 1010.1 1006.0 0.0
27/09:30am 34.9 35.7 17.2 35 11.6 SSW 9 15 5 8 1010.1 1006.0 0.0
27/09:00am 33.8 33.9 17.5 38 10.7 SW 13 19 7 10 1010.0 1005.9 0.0
27/08:30am 33.1 32.6 17.7 40 10.1 SSW 17 28 9 15 1010.0 1005.9 0.0
27/08:00am 32.5 33.4 18.3 43 9.4 SW 11 17 6 9 1010.0 1005.9 0.0
27/07:30am 31.2 32.8 19.2 48 8.0 WNW 9 13 5 7 1009.8 1005.7 0.0
27/07:00am 31.0 32.8 18.7 48 8.1 SSW 7 19 4 10 1009.7 1005.6 0.0
27/06:30am 28.3 30.1 19.5 59 5.8 W 9 13 5 7 1009.3 1005.2 0.0
27/06:00am 27.4 28.3 19.2 61 5.4 WSW 13 17 7 9 1009.2 1005.1 0.0
27/05:30am 25.7 29.1 19.3 67 4.2 CALM 0 0 0 0 1009.1 1005.0 0.0
27/05:00am 25.8 28.4 18.5 64 4.7 W 2 9 1 5 1008.9 1004.8 0.0
27/04:30am 25.5 27.2 18.4 65 4.6 SW 7 9 4 5 1008.6 1004.5 0.0
27/04:00am 25.0 27.7 18.7 68 4.1 WSW 2 6 1 3 1008.5 1004.4 0.0
27/03:30am 25.6 28.1 19.0 67 4.3 W 4 9 2 5 1008.5 1004.4 0.0
27/03:00am 25.9 29.1 18.8 65 4.6 CALM 0 0 0 0 1008.2 1004.1 0.0
27/02:30am 27.0 30.7 19.9 65 4.7 CALM 0 0 0 0 1008.3 1004.2 0.0
27/02:00am 26.8 29.3 17.3 56 6.1 CALM 0 7 0 4 1008.4 1004.3 0.0
27/01:30am 27.0 28.4 17.8 57 5.9 WSW 7 9 4 5 1008.3 1004.2 0.0
27/01:00am 27.6 29.5 18.6 58 5.9 SW 6 11 3 6 1008.5 1004.4 0.0
27/12:30am 27.7 28.7 16.9 51 6.9 WNW 7 9 4 5 1008.7 1004.6 0.0
27/12:00am 28.3 28.9 16.9 50 7.3 WSW 9 11 5 6 1008.7 1004.6 0.0
 
Date/Time
WST
Temp
°C
App
Temp
°C
Dew
Point
°C
Rel
Hum
%
Delta-T
°C
Wind Press
QNH
hPa
Press
MSL
hPa
Rain since
9am
mm
Dir  Spd
km/h
Gust
km/h
Spd
kts
Gust
kts
26/11:30pm 29.2 30.6 17.7 50 7.4 SW 7 9 4 5 1008.8 1004.7 0.0
26/11:00pm 30.1 31.4 17.5 46 8.2 WNW 7 11 4 6 1009.2 1005.1 0.0
26/10:30pm 30.2 30.8 15.9 42 9.0 WNW 7 15 4 8 1009.2 1005.1 0.0
26/10:00pm 30.4 30.8 16.4 43 8.9 WSW 9 11 5 6 1009.0 1004.9 0.0
26/09:30pm 32.2 32.2 15.2 35 10.7 SSW 9 13 5 7 1008.9 1004.8 0.0
26/09:00pm 32.0 32.6 15.9 38 10.3 SW 7 7 4 4 1009.0 1004.9 0.0
26/08:30pm 32.3 33.0 15.7 36 10.5 WSW 6 7 3 4 1008.8 1004.7 0.0
26/08:00pm 33.0 33.8 15.9 35 10.9 SW 6 7 3 4 1008.6 1004.5 0.0
26/07:30pm 34.0 34.5 15.5 33 11.8 WSW 7 7 4 4 1008.5 1004.4 0.0
26/07:00pm 34.6 36.4 15.5 32 12.2 CALM 0 0 0 0 1008.2 1004.1 0.0
26/06:30pm 36.1 35.5 13.6 26 14.0 N 9 17 5 9 1008.0 1003.9 0.0
26/06:00pm 38.1 36.3 12.0 21 16.1 NNE 13 17 7 9 1007.7 1003.6 0.0
26/05:30pm 38.5 35.5 10.8 19 16.8 NNE 17 26 9 14 1007.6 1003.5 0.0
26/05:00pm 39.3 36.3 10.6 18 17.4 ENE 17 24 9 13 1007.5 1003.4 0.0
26/04:30pm 39.7 36.4 10.9 18 17.5 NE 19 26 10 14 1007.5 1003.4 0.0
26/04:00pm 39.8 35.3 10.2 17 17.9 NE 24 32 13 17 1007.5 1003.4 0.0
26/03:30pm 40.2 35.8 10.5 17 18.0 NE 24 33 13 18 1007.4 1003.2 0.0
26/03:00pm 40.5 35.7 8.8 15 18.8 NE 24 37 13 20 1007.6 1003.5 0.0
26/02:30pm 40.2 36.7 8.6 15 18.6 NNE 17 26 9 14 1007.8 1003.7 0.0
26/02:00pm 40.5 35.7 8.8 15 18.8 NE 24 32 13 17 1008.0 1003.9 0.0
26/01:30pm 40.4 36.6 9.7 16 18.4 ENE 20 35 11 19 1008.1 1004.0 0.0
26/01:00pm 40.0 36.3 12.8 20 17.0 NNE 24 43 13 23 1008.5 1004.4 0.0
26/12:30pm 39.7 37.1 13.3 21 16.6 ENE 19 28 10 15 1009.0 1004.9 0.0
26/12:00pm 39.1 36.7 12.8 21 16.4 NE 17 28 9 15 1009.6 1005.5 0.0
26/11:30am 37.7 36.4 14.9 26 14.6 NE 15 24 8 13 1010.0 1005.9 0.0
26/11:00am 37.2 36.0 15.1 27 14.1 E 15 22 8 12 1010.3 1006.2 0.0
26/10:30am 36.1 35.4 16.3 31 12.8 NE 15 22 8 12 1010.5 1006.4 0.0
26/10:00am 34.3 34.4 16.6 34 11.5 NE 11 20 6 11 1010.6 1006.5 0.0
26/09:30am 33.8 33.9 17.5 38 10.7 ENE 13 20 7 11 1010.7 1006.6 0.0
26/09:00am 33.0 33.4 17.2 39 10.3 NE 11 17 6 9 1010.8 1006.7 0.0
26/08:30am 31.6 34.0 18.9 47 8.4 NNE 4 9 2 5 1010.4 1006.3 0.0
26/08:00am 30.6 33.2 19.3 51 7.5 NNE 4 9 2 5 1010.3 1006.2 0.0
26/07:30am 29.1 32.3 19.7 57 6.3 ENE 2 7 1 4 1010.0 1005.9 0.0
26/07:00am 27.3 30.6 19.1 61 5.4 CALM 0 0 0 0 1009.9 1005.8 0.0
26/06:30am 25.0 28.5 19.6 72 3.5 CALM 0 6 0 3 1009.8 1005.7 0.0
26/06:00am 24.2 27.0 18.8 72 3.5 WSW 2 7 1 4 1009.6 1005.5 0.0
26/05:30am 24.6 26.1 18.8 70 3.8 SSW 9 11 5 6 1009.0 1004.9 0.0
26/05:00am 25.0 25.7 18.0 65 4.5 W 11 13 6 7 1008.9 1004.8 0.0
26/04:30am 24.9 26.7 18.8 69 4.0 WSW 7 9 4 5 1008.7 1004.6 0.0
26/04:00am 24.9 28.1 18.8 69 4.0 CALM 0 0 0 0 1008.6 1004.5 0.0
26/03:30am 25.9 28.8 19.1 66 4.4 SW 2 6 1 3 1008.6 1004.5 0.0
26/03:00am 26.7 30.2 19.6 65 4.7 CALM 0 0 0 0 1008.6 1004.5 0.0
26/02:30am 26.6 28.0 17.7 58 5.7 E 7 9 4 5 1008.9 1004.8 0.0
26/02:00am 26.5 28.5 17.8 58 5.6 WNW 4 9 2 5 1008.8 1004.7 0.0
26/01:30am 27.1 29.8 17.8 56 6.0 CALM 0 0 0 0 1008.8 1004.7 0.0
26/01:00am 27.7 29.7 16.0 49 7.4 CALM 0 0 0 0 1009.1 1005.0 0.0
26/12:30am 27.8 27.1 15.5 47 7.7 W 13 15 7 8 1009.3 1005.2 0.0
26/12:00am 29.5 30.1 17.7 49 7.7 WSW 11 11 6 6 1009.3 1005.2 0.0

Other formats

Comma delimited format used in spreadsheet applications
http://www.bom.gov.au/fwo/IDW60801/IDW60801.94330.axf

JavaScript Object Notation format (JSON) in row-major order
http://www.bom.gov.au/fwo/IDW60801/IDW60801.94330.json

Data quality

Most of these data are generated automatically and are frequently updated. Quality checks on data are not normally performed. It is possible for incorrect values to appear. Refer to information at About Latest Weather Observations and please check the disclaimer before using these data.